sensor_id;sensor_type;location;lat;lon;timestamp;P1;durP1;ratioP1;P2;durP2;ratioP2
13079;SDS011;6606;49.154;9.280;2023-09-08T00:00:02;0.10;;;0.10;;
13079;SDS011;6606;49.154;9.280;2023-09-08T00:02:45;0.10;;;0.10;;
13079;SDS011;6606;49.154;9.280;2023-09-08T00:05:26;0.10;;;0.10;;
13079;SDS011;6606;49.154;9.280;2023-09-08T00:08:08;0.10;;;0.10;;
13079;SDS011;6606;49.154;9.280;2023-09-08T00:10:50;0.10;;;0.10;;
13079;SDS011;6606;49.154;9.280;2023-09-08T00:13:33;0.10;;;0.10;;
13079;SDS011;6606;49.154;9.280;2023-09-08T00:16:15;0.10;;;0.10;;
13079;SDS011;6606;49.154;9.280;2023-09-08T00:18:57;0.10;;;0.10;;
13079;SDS011;6606;49.154;9.280;2023-09-08T00:21:39;0.10;;;0.10;;
13079;SDS011;6606;49.154;9.280;2023-09-08T00:24:23;0.13;;;0.13;;
13079;SDS011;6606;49.154;9.280;2023-09-08T00:27:05;0.10;;;0.10;;
13079;SDS011;6606;49.154;9.280;2023-09-08T00:29:48;0.10;;;0.10;;
13079;SDS011;6606;49.154;9.280;2023-09-08T00:32:30;0.10;;;0.10;;
13079;SDS011;6606;49.154;9.280;2023-09-08T00:35:11;0.10;;;0.10;;
13079;SDS011;6606;49.154;9.280;2023-09-08T00:37:54;0.10;;;0.10;;
13079;SDS011;6606;49.154;9.280;2023-09-08T00:40:36;0.10;;;0.10;;
13079;SDS011;6606;49.154;9.280;2023-09-08T00:43:18;0.07;;;0.07;;
13079;SDS011;6606;49.154;9.280;2023-09-08T00:46:01;0.10;;;0.10;;
13079;SDS011;6606;49.154;9.280;2023-09-08T00:48:43;0.10;;;0.10;;
13079;SDS011;6606;49.154;9.280;2023-09-08T00:51:25;0.10;;;0.10;;
13079;SDS011;6606;49.154;9.280;2023-09-08T00:54:07;0.10;;;0.10;;
13079;SDS011;6606;49.154;9.280;2023-09-08T00:56:50;0.10;;;0.10;;
13079;SDS011;6606;49.154;9.280;2023-09-08T00:59:35;0.10;;;0.10;;
13079;SDS011;6606;49.154;9.280;2023-09-08T01:02:19;0.10;;;0.10;;
13079;SDS011;6606;49.154;9.280;2023-09-08T01:05:02;0.10;;;0.10;;
13079;SDS011;6606;49.154;9.280;2023-09-08T01:07:44;0.10;;;0.10;;
13079;SDS011;6606;49.154;9.280;2023-09-08T01:10:27;0.10;;;0.10;;
13079;SDS011;6606;49.154;9.280;2023-09-08T01:13:09;0.10;;;0.10;;
13079;SDS011;6606;49.154;9.280;2023-09-08T01:15:51;0.10;;;0.10;;
13079;SDS011;6606;49.154;9.280;2023-09-08T01:18:35;0.10;;;0.10;;
13079;SDS011;6606;49.154;9.280;2023-09-08T01:21:33;0.10;;;0.10;;
13079;SDS011;6606;49.154;9.280;2023-09-08T01:24:38;0.10;;;0.10;;
13079;SDS011;6606;49.154;9.280;2023-09-08T01:27:45;0.10;;;0.10;;
13079;SDS011;6606;49.154;9.280;2023-09-08T01:30:29;0.10;;;0.10;;
13079;SDS011;6606;49.154;9.280;2023-09-08T01:33:13;0.10;;;0.10;;
13079;SDS011;6606;49.154;9.280;2023-09-08T01:35:56;0.10;;;0.10;;
13079;SDS011;6606;49.154;9.280;2023-09-08T01:38:40;0.10;;;0.10;;
13079;SDS011;6606;49.154;9.280;2023-09-08T01:41:21;0.10;;;0.10;;
13079;SDS011;6606;49.154;9.280;2023-09-08T01:44:05;0.10;;;0.10;;
13079;SDS011;6606;49.154;9.280;2023-09-08T01:46:50;0.10;;;0.10;;
13079;SDS011;6606;49.154;9.280;2023-09-08T01:49:36;0.10;;;0.10;;
13079;SDS011;6606;49.154;9.280;2023-09-08T01:52:18;0.10;;;0.10;;
13079;SDS011;6606;49.154;9.280;2023-09-08T01:55:00;0.10;;;0.10;;
13079;SDS011;6606;49.154;9.280;2023-09-08T01:57:43;0.10;;;0.10;;
13079;SDS011;6606;49.154;9.280;2023-09-08T02:00:28;0.10;;;0.10;;
13079;SDS011;6606;49.154;9.280;2023-09-08T02:03:09;0.20;;;0.20;;
13079;SDS011;6606;49.154;9.280;2023-09-08T02:05:51;0.10;;;0.10;;
13079;SDS011;6606;49.154;9.280;2023-09-08T02:08:35;0.10;;;0.10;;
13079;SDS011;6606;49.154;9.280;2023-09-08T02:11:17;0.17;;;0.17;;
13079;SDS011;6606;49.154;9.280;2023-09-08T02:13:58;0.10;;;0.10;;
13079;SDS011;6606;49.154;9.280;2023-09-08T02:16:41;0.10;;;0.10;;
13079;SDS011;6606;49.154;9.280;2023-09-08T02:19:23;0.10;;;0.10;;
13079;SDS011;6606;49.154;9.280;2023-09-08T02:22:05;0.10;;;0.10;;
13079;SDS011;6606;49.154;9.280;2023-09-08T02:24:48;0.10;;;0.10;;
13079;SDS011;6606;49.154;9.280;2023-09-08T02:27:32;0.10;;;0.10;;
13079;SDS011;6606;49.154;9.280;2023-09-08T02:30:14;0.10;;;0.10;;
13079;SDS011;6606;49.154;9.280;2023-09-08T02:32:57;0.10;;;0.10;;
13079;SDS011;6606;49.154;9.280;2023-09-08T02:35:43;0.10;;;0.10;;
13079;SDS011;6606;49.154;9.280;2023-09-08T02:38:27;0.10;;;0.10;;
13079;SDS011;6606;49.154;9.280;2023-09-08T02:41:09;0.10;;;0.10;;
13079;SDS011;6606;49.154;9.280;2023-09-08T02:43:51;0.20;;;0.20;;
13079;SDS011;6606;49.154;9.280;2023-09-08T02:46:33;0.10;;;0.10;;
13079;SDS011;6606;49.154;9.280;2023-09-08T02:49:16;0.10;;;0.10;;
13079;SDS011;6606;49.154;9.280;2023-09-08T02:51:58;0.10;;;0.10;;
13079;SDS011;6606;49.154;9.280;2023-09-08T02:54:39;0.10;;;0.10;;
13079;SDS011;6606;49.154;9.280;2023-09-08T02:57:22;0.10;;;0.10;;
13079;SDS011;6606;49.154;9.280;2023-09-08T03:00:04;0.10;;;0.10;;
13079;SDS011;6606;49.154;9.280;2023-09-08T03:02:48;0.20;;;0.20;;
13079;SDS011;6606;49.154;9.280;2023-09-08T03:05:32;0.10;;;0.10;;
13079;SDS011;6606;49.154;9.280;2023-09-08T03:08:20;0.10;;;0.10;;
13079;SDS011;6606;49.154;9.280;2023-09-08T03:11:11;0.10;;;0.10;;
13079;SDS011;6606;49.154;9.280;2023-09-08T03:13:55;0.10;;;0.10;;
13079;SDS011;6606;49.154;9.280;2023-09-08T03:16:36;0.10;;;0.10;;
13079;SDS011;6606;49.154;9.280;2023-09-08T03:19:18;0.10;;;0.10;;
13079;SDS011;6606;49.154;9.280;2023-09-08T03:22:01;0.10;;;0.10;;
13079;SDS011;6606;49.154;9.280;2023-09-08T03:24:43;0.10;;;0.10;;
13079;SDS011;6606;49.154;9.280;2023-09-08T03:27:25;0.10;;;0.10;;
13079;SDS011;6606;49.154;9.280;2023-09-08T03:30:08;0.10;;;0.10;;
13079;SDS011;6606;49.154;9.280;2023-09-08T03:32:51;0.10;;;0.10;;
13079;SDS011;6606;49.154;9.280;2023-09-08T03:35:33;0.10;;;0.10;;
13079;SDS011;6606;49.154;9.280;2023-09-08T03:38:16;0.10;;;0.10;;
13079;SDS011;6606;49.154;9.280;2023-09-08T03:40:59;0.10;;;0.10;;
13079;SDS011;6606;49.154;9.280;2023-09-08T03:43:41;0.10;;;0.10;;
13079;SDS011;6606;49.154;9.280;2023-09-08T03:46:22;0.10;;;0.10;;
13079;SDS011;6606;49.154;9.280;2023-09-08T03:49:05;0.10;;;0.10;;
13079;SDS011;6606;49.154;9.280;2023-09-08T03:51:47;0.10;;;0.10;;
13079;SDS011;6606;49.154;9.280;2023-09-08T03:54:30;0.10;;;0.10;;
13079;SDS011;6606;49.154;9.280;2023-09-08T03:57:15;0.10;;;0.10;;
13079;SDS011;6606;49.154;9.280;2023-09-08T03:59:58;0.10;;;0.10;;
13079;SDS011;6606;49.154;9.280;2023-09-08T04:02:40;0.10;;;0.10;;
13079;SDS011;6606;49.154;9.280;2023-09-08T04:05:21;0.10;;;0.10;;
13079;SDS011;6606;49.154;9.280;2023-09-08T04:08:04;0.10;;;0.10;;
13079;SDS011;6606;49.154;9.280;2023-09-08T04:10:48;0.10;;;0.10;;
13079;SDS011;6606;49.154;9.280;2023-09-08T04:13:31;0.10;;;0.10;;
13079;SDS011;6606;49.154;9.280;2023-09-08T04:16:13;0.10;;;0.10;;
13079;SDS011;6606;49.154;9.280;2023-09-08T04:18:57;0.10;;;0.10;;
13079;SDS011;6606;49.154;9.280;2023-09-08T04:21:38;0.10;;;0.10;;
13079;SDS011;6606;49.154;9.280;2023-09-08T04:24:22;0.10;;;0.10;;
13079;SDS011;6606;49.154;9.280;2023-09-08T04:27:05;0.10;;;0.10;;
13079;SDS011;6606;49.154;9.280;2023-09-08T04:29:49;0.10;;;0.10;;
13079;SDS011;6606;49.154;9.280;2023-09-08T04:32:31;0.10;;;0.10;;
13079;SDS011;6606;49.154;9.280;2023-09-08T04:35:12;0.10;;;0.10;;
13079;SDS011;6606;49.154;9.280;2023-09-08T04:37:54;0.10;;;0.10;;
13079;SDS011;6606;49.154;9.280;2023-09-08T04:40:36;0.10;;;0.10;;
13079;SDS011;6606;49.154;9.280;2023-09-08T04:43:22;0.10;;;0.10;;
13079;SDS011;6606;49.154;9.280;2023-09-08T04:46:05;0.10;;;0.10;;
13079;SDS011;6606;49.154;9.280;2023-09-08T04:48:47;0.10;;;0.10;;
13079;SDS011;6606;49.154;9.280;2023-09-08T04:51:31;0.10;;;0.10;;
13079;SDS011;6606;49.154;9.280;2023-09-08T04:54:12;0.20;;;0.20;;
13079;SDS011;6606;49.154;9.280;2023-09-08T04:56:54;0.10;;;0.10;;
13079;SDS011;6606;49.154;9.280;2023-09-08T04:59:38;0.10;;;0.10;;
13079;SDS011;6606;49.154;9.280;2023-09-08T05:02:21;0.10;;;0.10;;
13079;SDS011;6606;49.154;9.280;2023-09-08T05:05:03;0.10;;;0.10;;
13079;SDS011;6606;49.154;9.280;2023-09-08T05:07:45;0.10;;;0.10;;
13079;SDS011;6606;49.154;9.280;2023-09-08T05:10:28;0.10;;;0.10;;
13079;SDS011;6606;49.154;9.280;2023-09-08T05:13:11;0.10;;;0.10;;
13079;SDS011;6606;49.154;9.280;2023-09-08T05:15:54;0.10;;;0.10;;
13079;SDS011;6606;49.154;9.280;2023-09-08T05:18:42;0.10;;;0.10;;
13079;SDS011;6606;49.154;9.280;2023-09-08T05:21:26;0.10;;;0.10;;
13079;SDS011;6606;49.154;9.280;2023-09-08T05:24:07;0.10;;;0.10;;
13079;SDS011;6606;49.154;9.280;2023-09-08T05:26:50;0.10;;;0.10;;
13079;SDS011;6606;49.154;9.280;2023-09-08T05:29:32;0.10;;;0.10;;
13079;SDS011;6606;49.154;9.280;2023-09-08T05:32:18;0.10;;;0.10;;
13079;SDS011;6606;49.154;9.280;2023-09-08T05:35:00;0.10;;;0.10;;
13079;SDS011;6606;49.154;9.280;2023-09-08T05:37:42;0.20;;;0.20;;
13079;SDS011;6606;49.154;9.280;2023-09-08T05:40:27;0.10;;;0.10;;
13079;SDS011;6606;49.154;9.280;2023-09-08T05:43:09;0.10;;;0.10;;
13079;SDS011;6606;49.154;9.280;2023-09-08T05:45:51;0.10;;;0.10;;
13079;SDS011;6606;49.154;9.280;2023-09-08T05:48:35;0.10;;;0.10;;
13079;SDS011;6606;49.154;9.280;2023-09-08T05:51:17;0.20;;;0.20;;
13079;SDS011;6606;49.154;9.280;2023-09-08T05:54:00;0.10;;;0.10;;
13079;SDS011;6606;49.154;9.280;2023-09-08T05:56:43;0.10;;;0.10;;
13079;SDS011;6606;49.154;9.280;2023-09-08T05:59:26;0.10;;;0.10;;
13079;SDS011;6606;49.154;9.280;2023-09-08T06:02:07;0.10;;;0.10;;
13079;SDS011;6606;49.154;9.280;2023-09-08T06:04:51;0.10;;;0.10;;
13079;SDS011;6606;49.154;9.280;2023-09-08T06:07:33;0.10;;;0.10;;
13079;SDS011;6606;49.154;9.280;2023-09-08T06:10:14;0.10;;;0.10;;
13079;SDS011;6606;49.154;9.280;2023-09-08T06:12:59;0.10;;;0.10;;
13079;SDS011;6606;49.154;9.280;2023-09-08T06:15:42;0.10;;;0.10;;
13079;SDS011;6606;49.154;9.280;2023-09-08T06:18:27;0.10;;;0.10;;
13079;SDS011;6606;49.154;9.280;2023-09-08T06:21:12;0.10;;;0.10;;
13079;SDS011;6606;49.154;9.280;2023-09-08T06:23:56;0.10;;;0.10;;
13079;SDS011;6606;49.154;9.280;2023-09-08T06:26:39;0.10;;;0.10;;
13079;SDS011;6606;49.154;9.280;2023-09-08T06:29:22;0.10;;;0.10;;
13079;SDS011;6606;49.154;9.280;2023-09-08T06:32:04;0.10;;;0.10;;
13079;SDS011;6606;49.154;9.280;2023-09-08T06:34:47;0.10;;;0.10;;
13079;SDS011;6606;49.154;9.280;2023-09-08T06:37:35;0.10;;;0.10;;
13079;SDS011;6606;49.154;9.280;2023-09-08T06:40:17;0.10;;;0.10;;
13079;SDS011;6606;49.154;9.280;2023-09-08T06:43:00;0.10;;;0.10;;
13079;SDS011;6606;49.154;9.280;2023-09-08T06:45:52;0.10;;;0.10;;
13079;SDS011;6606;49.154;9.280;2023-09-08T06:48:36;0.10;;;0.10;;
13079;SDS011;6606;49.154;9.280;2023-09-08T06:51:19;0.10;;;0.10;;
13079;SDS011;6606;49.154;9.280;2023-09-08T06:54:02;0.10;;;0.10;;
13079;SDS011;6606;49.154;9.280;2023-09-08T06:56:50;0.10;;;0.10;;
13079;SDS011;6606;49.154;9.280;2023-09-08T06:59:32;0.10;;;0.10;;
13079;SDS011;6606;49.154;9.280;2023-09-08T07:02:14;0.10;;;0.10;;
13079;SDS011;6606;49.154;9.280;2023-09-08T07:04:56;0.10;;;0.10;;
13079;SDS011;6606;49.154;9.280;2023-09-08T07:07:38;0.10;;;0.10;;
13079;SDS011;6606;49.154;9.280;2023-09-08T07:10:22;0.08;;;0.08;;
13079;SDS011;6606;49.154;9.280;2023-09-08T07:13:03;0.10;;;0.10;;
13079;SDS011;6606;49.154;9.280;2023-09-08T07:15:45;0.10;;;0.10;;
13079;SDS011;6606;49.154;9.280;2023-09-08T07:18:27;0.03;;;0.03;;
13079;SDS011;6606;49.154;9.280;2023-09-08T07:21:12;0.10;;;0.10;;
13079;SDS011;6606;49.154;9.280;2023-09-08T07:23:54;0.10;;;0.10;;
13079;SDS011;6606;49.154;9.280;2023-09-08T07:26:38;0.10;;;0.10;;
13079;SDS011;6606;49.154;9.280;2023-09-08T07:29:20;0.05;;;0.05;;
13079;SDS011;6606;49.154;9.280;2023-09-08T07:32:02;0.00;;;0.00;;
13079;SDS011;6606;49.154;9.280;2023-09-08T07:34:45;0.00;;;0.00;;
13079;SDS011;6606;49.154;9.280;2023-09-08T07:37:30;0.00;;;0.00;;
13079;SDS011;6606;49.154;9.280;2023-09-08T07:40:15;0.00;;;0.00;;
13079;SDS011;6606;49.154;9.280;2023-09-08T07:42:58;0.00;;;0.00;;
13079;SDS011;6606;49.154;9.280;2023-09-08T07:45:40;0.00;;;0.00;;
13079;SDS011;6606;49.154;9.280;2023-09-08T07:48:22;0.00;;;0.00;;
13079;SDS011;6606;49.154;9.280;2023-09-08T07:51:04;0.00;;;0.00;;
13079;SDS011;6606;49.154;9.280;2023-09-08T07:53:46;0.00;;;0.00;;
13079;SDS011;6606;49.154;9.280;2023-09-08T07:56:27;0.00;;;0.00;;
13079;SDS011;6606;49.154;9.280;2023-09-08T07:59:11;0.00;;;0.00;;
13079;SDS011;6606;49.154;9.280;2023-09-08T08:01:52;0.00;;;0.00;;
13079;SDS011;6606;49.154;9.280;2023-09-08T08:04:37;0.00;;;0.00;;
13079;SDS011;6606;49.154;9.280;2023-09-08T08:07:19;0.00;;;0.00;;
13079;SDS011;6606;49.154;9.280;2023-09-08T08:10:01;0.00;;;0.00;;
13079;SDS011;6606;49.154;9.280;2023-09-08T08:12:43;0.00;;;0.00;;
13079;SDS011;6606;49.154;9.280;2023-09-08T08:15:35;0.00;;;0.00;;
13079;SDS011;6606;49.154;9.280;2023-09-08T08:18:20;0.00;;;0.00;;
13079;SDS011;6606;49.154;9.280;2023-09-08T08:21:02;0.10;;;0.10;;
13079;SDS011;6606;49.154;9.280;2023-09-08T08:23:44;0.10;;;0.10;;
13079;SDS011;6606;49.154;9.280;2023-09-08T08:26:26;0.08;;;0.08;;
13079;SDS011;6606;49.154;9.280;2023-09-08T08:29:12;0.10;;;0.10;;
13079;SDS011;6606;49.154;9.280;2023-09-08T08:31:55;0.10;;;0.10;;
13079;SDS011;6606;49.154;9.280;2023-09-08T08:34:37;0.10;;;0.10;;
13079;SDS011;6606;49.154;9.280;2023-09-08T08:37:19;0.10;;;0.10;;
13079;SDS011;6606;49.154;9.280;2023-09-08T08:40:01;0.10;;;0.10;;
13079;SDS011;6606;49.154;9.280;2023-09-08T08:42:53;0.10;;;0.10;;
13079;SDS011;6606;49.154;9.280;2023-09-08T08:45:55;0.10;;;0.10;;
13079;SDS011;6606;49.154;9.280;2023-09-08T08:48:48;0.10;;;0.10;;
13079;SDS011;6606;49.154;9.280;2023-09-08T08:51:34;0.10;;;0.10;;
13079;SDS011;6606;49.154;9.280;2023-09-08T08:54:17;0.10;;;0.10;;
13079;SDS011;6606;49.154;9.280;2023-09-08T08:57:00;0.10;;;0.10;;
13079;SDS011;6606;49.154;9.280;2023-09-08T08:59:42;0.00;;;0.00;;
13079;SDS011;6606;49.154;9.280;2023-09-08T09:02:25;0.10;;;0.10;;
13079;SDS011;6606;49.154;9.280;2023-09-08T09:05:10;0.10;;;0.10;;
13079;SDS011;6606;49.154;9.280;2023-09-08T09:07:53;0.10;;;0.10;;
13079;SDS011;6606;49.154;9.280;2023-09-08T09:10:36;0.10;;;0.10;;
13079;SDS011;6606;49.154;9.280;2023-09-08T09:13:18;0.10;;;0.10;;
13079;SDS011;6606;49.154;9.280;2023-09-08T09:15:59;0.08;;;0.08;;
13079;SDS011;6606;49.154;9.280;2023-09-08T09:18:54;0.05;;;0.05;;
13079;SDS011;6606;49.154;9.280;2023-09-08T09:21:45;0.10;;;0.10;;
13079;SDS011;6606;49.154;9.280;2023-09-08T09:24:29;0.10;;;0.10;;
13079;SDS011;6606;49.154;9.280;2023-09-08T09:27:12;0.10;;;0.10;;
13079;SDS011;6606;49.154;9.280;2023-09-08T09:29:57;0.03;;;0.03;;
13079;SDS011;6606;49.154;9.280;2023-09-08T09:32:39;0.00;;;0.00;;
13079;SDS011;6606;49.154;9.280;2023-09-08T09:35:21;0.10;;;0.10;;
13079;SDS011;6606;49.154;9.280;2023-09-08T09:38:21;0.10;;;0.10;;
13079;SDS011;6606;49.154;9.280;2023-09-08T09:41:03;0.10;;;0.10;;
13079;SDS011;6606;49.154;9.280;2023-09-08T09:43:45;0.10;;;0.10;;
13079;SDS011;6606;49.154;9.280;2023-09-08T09:46:28;0.10;;;0.10;;
13079;SDS011;6606;49.154;9.280;2023-09-08T09:49:10;0.10;;;0.10;;
13079;SDS011;6606;49.154;9.280;2023-09-08T09:51:53;0.10;;;0.10;;
13079;SDS011;6606;49.154;9.280;2023-09-08T09:54:37;0.10;;;0.10;;
13079;SDS011;6606;49.154;9.280;2023-09-08T09:57:19;0.00;;;0.00;;
13079;SDS011;6606;49.154;9.280;2023-09-08T10:00:02;0.00;;;0.00;;
13079;SDS011;6606;49.154;9.280;2023-09-08T10:02:46;0.10;;;0.10;;
13079;SDS011;6606;49.154;9.280;2023-09-08T10:05:28;0.10;;;0.10;;
13079;SDS011;6606;49.154;9.280;2023-09-08T10:08:10;0.05;;;0.05;;
13079;SDS011;6606;49.154;9.280;2023-09-08T10:10:53;0.10;;;0.10;;
13079;SDS011;6606;49.154;9.280;2023-09-08T10:13:38;0.10;;;0.10;;
13079;SDS011;6606;49.154;9.280;2023-09-08T10:16:21;0.10;;;0.10;;
13079;SDS011;6606;49.154;9.280;2023-09-08T10:19:07;0.10;;;0.10;;
13079;SDS011;6606;49.154;9.280;2023-09-08T10:21:50;0.00;;;0.00;;
13079;SDS011;6606;49.154;9.280;2023-09-08T10:24:35;0.10;;;0.10;;
13079;SDS011;6606;49.154;9.280;2023-09-08T10:27:23;0.00;;;0.00;;
13079;SDS011;6606;49.154;9.280;2023-09-08T10:30:07;0.10;;;0.10;;
13079;SDS011;6606;49.154;9.280;2023-09-08T10:32:51;0.00;;;0.00;;
13079;SDS011;6606;49.154;9.280;2023-09-08T10:35:35;0.10;;;0.10;;
13079;SDS011;6606;49.154;9.280;2023-09-08T10:38:21;0.00;;;0.00;;
13079;SDS011;6606;49.154;9.280;2023-09-08T10:41:25;0.00;;;0.00;;
13079;SDS011;6606;49.154;9.280;2023-09-08T10:44:10;0.10;;;0.10;;
13079;SDS011;6606;49.154;9.280;2023-09-08T10:46:57;0.10;;;0.10;;
13079;SDS011;6606;49.154;9.280;2023-09-08T10:49:40;0.00;;;0.00;;
13079;SDS011;6606;49.154;9.280;2023-09-08T10:52:21;0.00;;;0.00;;
13079;SDS011;6606;49.154;9.280;2023-09-08T10:55:04;0.10;;;0.10;;
13079;SDS011;6606;49.154;9.280;2023-09-08T10:57:47;0.08;;;0.08;;
13079;SDS011;6606;49.154;9.280;2023-09-08T11:00:30;0.00;;;0.00;;
13079;SDS011;6606;49.154;9.280;2023-09-08T11:03:28;0.10;;;0.10;;
13079;SDS011;6606;49.154;9.280;2023-09-08T11:06:23;0.10;;;0.10;;
13079;SDS011;6606;49.154;9.280;2023-09-08T11:09:10;0.10;;;0.10;;
13079;SDS011;6606;49.154;9.280;2023-09-08T11:11:52;0.00;;;0.00;;
13079;SDS011;6606;49.154;9.280;2023-09-08T11:14:33;0.10;;;0.10;;
13079;SDS011;6606;49.154;9.280;2023-09-08T11:17:17;0.10;;;0.10;;
13079;SDS011;6606;49.154;9.280;2023-09-08T11:19:58;0.00;;;0.00;;
13079;SDS011;6606;49.154;9.280;2023-09-08T11:22:41;0.00;;;0.00;;
13079;SDS011;6606;49.154;9.280;2023-09-08T11:25:23;0.00;;;0.00;;
13079;SDS011;6606;49.154;9.280;2023-09-08T11:28:04;0.00;;;0.00;;
13079;SDS011;6606;49.154;9.280;2023-09-08T11:30:47;0.00;;;0.00;;
13079;SDS011;6606;49.154;9.280;2023-09-08T11:33:32;0.00;;;0.00;;
13079;SDS011;6606;49.154;9.280;2023-09-08T11:36:19;0.00;;;0.00;;
13079;SDS011;6606;49.154;9.280;2023-09-08T11:39:01;0.00;;;0.00;;
13079;SDS011;6606;49.154;9.280;2023-09-08T11:41:45;0.00;;;0.00;;
13079;SDS011;6606;49.154;9.280;2023-09-08T11:44:27;0.10;;;0.10;;
13079;SDS011;6606;49.154;9.280;2023-09-08T11:47:10;0.00;;;0.00;;
13079;SDS011;6606;49.154;9.280;2023-09-08T11:49:53;0.00;;;0.00;;
13079;SDS011;6606;49.154;9.280;2023-09-08T11:52:35;0.00;;;0.00;;
13079;SDS011;6606;49.154;9.280;2023-09-08T11:55:17;0.10;;;0.10;;
13079;SDS011;6606;49.154;9.280;2023-09-08T11:58:02;0.00;;;0.00;;
13079;SDS011;6606;49.154;9.280;2023-09-08T12:00:45;0.05;;;0.05;;
13079;SDS011;6606;49.154;9.280;2023-09-08T12:03:29;0.00;;;0.00;;
13079;SDS011;6606;49.154;9.280;2023-09-08T12:06:12;0.10;;;0.10;;
13079;SDS011;6606;49.154;9.280;2023-09-08T12:08:54;0.10;;;0.10;;
13079;SDS011;6606;49.154;9.280;2023-09-08T12:11:37;0.00;;;0.00;;
13079;SDS011;6606;49.154;9.280;2023-09-08T12:14:22;0.00;;;0.00;;
13079;SDS011;6606;49.154;9.280;2023-09-08T12:17:07;0.00;;;0.00;;
13079;SDS011;6606;49.154;9.280;2023-09-08T12:19:49;0.00;;;0.00;;
13079;SDS011;6606;49.154;9.280;2023-09-08T12:22:33;0.05;;;0.05;;
13079;SDS011;6606;49.154;9.280;2023-09-08T12:25:15;0.08;;;0.08;;
13079;SDS011;6606;49.154;9.280;2023-09-08T12:27:57;0.00;;;0.00;;
13079;SDS011;6606;49.154;9.280;2023-09-08T12:30:39;0.00;;;0.00;;
13079;SDS011;6606;49.154;9.280;2023-09-08T12:33:22;0.00;;;0.00;;
13079;SDS011;6606;49.154;9.280;2023-09-08T12:36:09;0.00;;;0.00;;
13079;SDS011;6606;49.154;9.280;2023-09-08T12:38:53;0.05;;;0.05;;
13079;SDS011;6606;49.154;9.280;2023-09-08T12:41:35;0.00;;;0.00;;
13079;SDS011;6606;49.154;9.280;2023-09-08T12:44:16;0.00;;;0.00;;
13079;SDS011;6606;49.154;9.280;2023-09-08T12:46:58;0.00;;;0.00;;
13079;SDS011;6606;49.154;9.280;2023-09-08T12:49:40;0.00;;;0.00;;
13079;SDS011;6606;49.154;9.280;2023-09-08T12:52:22;0.00;;;0.00;;
13079;SDS011;6606;49.154;9.280;2023-09-08T12:55:05;0.00;;;0.00;;
13079;SDS011;6606;49.154;9.280;2023-09-08T12:57:48;0.00;;;0.00;;
13079;SDS011;6606;49.154;9.280;2023-09-08T13:00:32;0.00;;;0.00;;
13079;SDS011;6606;49.154;9.280;2023-09-08T13:03:14;0.00;;;0.00;;
13079;SDS011;6606;49.154;9.280;2023-09-08T13:05:55;0.00;;;0.00;;
13079;SDS011;6606;49.154;9.280;2023-09-08T13:08:37;0.00;;;0.00;;
13079;SDS011;6606;49.154;9.280;2023-09-08T13:11:20;0.05;;;0.05;;
13079;SDS011;6606;49.154;9.280;2023-09-08T13:14:02;0.00;;;0.00;;
13079;SDS011;6606;49.154;9.280;2023-09-08T13:16:44;0.10;;;0.10;;
13079;SDS011;6606;49.154;9.280;2023-09-08T13:19:26;0.00;;;0.00;;
13079;SDS011;6606;49.154;9.280;2023-09-08T13:22:08;0.00;;;0.00;;
13079;SDS011;6606;49.154;9.280;2023-09-08T13:24:50;0.00;;;0.00;;
13079;SDS011;6606;49.154;9.280;2023-09-08T13:27:33;0.00;;;0.00;;
13079;SDS011;6606;49.154;9.280;2023-09-08T13:30:15;0.00;;;0.00;;
13079;SDS011;6606;49.154;9.280;2023-09-08T13:32:57;0.00;;;0.00;;
13079;SDS011;6606;49.154;9.280;2023-09-08T13:35:39;0.00;;;0.00;;
13079;SDS011;6606;49.154;9.280;2023-09-08T13:38:21;0.00;;;0.00;;
13079;SDS011;6606;49.154;9.280;2023-09-08T13:41:04;0.00;;;0.00;;
13079;SDS011;6606;49.154;9.280;2023-09-08T13:43:47;0.00;;;0.00;;
13079;SDS011;6606;49.154;9.280;2023-09-08T13:46:29;0.00;;;0.00;;
13079;SDS011;6606;49.154;9.280;2023-09-08T13:49:11;0.00;;;0.00;;
13079;SDS011;6606;49.154;9.280;2023-09-08T13:51:55;0.00;;;0.00;;
13079;SDS011;6606;49.154;9.280;2023-09-08T13:54:37;0.00;;;0.00;;
13079;SDS011;6606;49.154;9.280;2023-09-08T13:57:20;0.00;;;0.00;;
13079;SDS011;6606;49.154;9.280;2023-09-08T14:00:07;0.00;;;0.00;;
13079;SDS011;6606;49.154;9.280;2023-09-08T14:02:51;0.00;;;0.00;;
13079;SDS011;6606;49.154;9.280;2023-09-08T14:05:33;0.00;;;0.00;;
13079;SDS011;6606;49.154;9.280;2023-09-08T14:08:15;0.00;;;0.00;;
13079;SDS011;6606;49.154;9.280;2023-09-08T14:10:59;0.00;;;0.00;;
13079;SDS011;6606;49.154;9.280;2023-09-08T14:13:43;0.00;;;0.00;;
13079;SDS011;6606;49.154;9.280;2023-09-08T14:16:29;0.00;;;0.00;;
13079;SDS011;6606;49.154;9.280;2023-09-08T14:19:12;0.00;;;0.00;;
13079;SDS011;6606;49.154;9.280;2023-09-08T14:22:06;0.00;;;0.00;;
13079;SDS011;6606;49.154;9.280;2023-09-08T14:24:49;0.00;;;0.00;;
13079;SDS011;6606;49.154;9.280;2023-09-08T14:27:37;0.00;;;0.00;;
13079;SDS011;6606;49.154;9.280;2023-09-08T14:30:19;0.00;;;0.00;;
13079;SDS011;6606;49.154;9.280;2023-09-08T14:33:06;0.10;;;0.10;;
13079;SDS011;6606;49.154;9.280;2023-09-08T14:35:50;0.00;;;0.00;;
13079;SDS011;6606;49.154;9.280;2023-09-08T14:38:34;0.00;;;0.00;;
13079;SDS011;6606;49.154;9.280;2023-09-08T14:41:17;0.10;;;0.10;;
13079;SDS011;6606;49.154;9.280;2023-09-08T14:44:02;0.00;;;0.00;;
13079;SDS011;6606;49.154;9.280;2023-09-08T14:46:48;0.00;;;0.00;;
13079;SDS011;6606;49.154;9.280;2023-09-08T14:49:34;0.00;;;0.00;;
13079;SDS011;6606;49.154;9.280;2023-09-08T14:52:17;0.00;;;0.00;;
13079;SDS011;6606;49.154;9.280;2023-09-08T14:55:03;0.00;;;0.00;;
13079;SDS011;6606;49.154;9.280;2023-09-08T14:57:49;0.00;;;0.00;;
13079;SDS011;6606;49.154;9.280;2023-09-08T15:00:33;0.00;;;0.00;;
13079;SDS011;6606;49.154;9.280;2023-09-08T15:03:17;0.00;;;0.00;;
13079;SDS011;6606;49.154;9.280;2023-09-08T15:06:03;0.00;;;0.00;;
13079;SDS011;6606;49.154;9.280;2023-09-08T15:08:49;0.00;;;0.00;;
13079;SDS011;6606;49.154;9.280;2023-09-08T15:11:32;0.00;;;0.00;;
13079;SDS011;6606;49.154;9.280;2023-09-08T15:14:14;0.00;;;0.00;;
13079;SDS011;6606;49.154;9.280;2023-09-08T15:16:57;0.00;;;0.00;;
13079;SDS011;6606;49.154;9.280;2023-09-08T15:19:42;0.00;;;0.00;;
13079;SDS011;6606;49.154;9.280;2023-09-08T15:22:26;0.00;;;0.00;;
13079;SDS011;6606;49.154;9.280;2023-09-08T15:25:12;0.00;;;0.00;;
13079;SDS011;6606;49.154;9.280;2023-09-08T15:27:58;0.00;;;0.00;;
13079;SDS011;6606;49.154;9.280;2023-09-08T15:30:46;0.10;;;0.10;;
13079;SDS011;6606;49.154;9.280;2023-09-08T15:33:42;0.00;;;0.00;;
13079;SDS011;6606;49.154;9.280;2023-09-08T15:36:30;0.00;;;0.00;;
13079;SDS011;6606;49.154;9.280;2023-09-08T15:39:28;0.00;;;0.00;;
13079;SDS011;6606;49.154;9.280;2023-09-08T15:42:12;0.00;;;0.00;;
13079;SDS011;6606;49.154;9.280;2023-09-08T15:44:54;0.00;;;0.00;;
13079;SDS011;6606;49.154;9.280;2023-09-08T15:47:36;0.00;;;0.00;;
13079;SDS011;6606;49.154;9.280;2023-09-08T15:50:18;0.00;;;0.00;;
13079;SDS011;6606;49.154;9.280;2023-09-08T15:53:00;0.00;;;0.00;;
13079;SDS011;6606;49.154;9.280;2023-09-08T15:55:43;0.00;;;0.00;;
13079;SDS011;6606;49.154;9.280;2023-09-08T15:58:25;0.00;;;0.00;;
13079;SDS011;6606;49.154;9.280;2023-09-08T16:01:07;0.00;;;0.00;;
13079;SDS011;6606;49.154;9.280;2023-09-08T16:03:49;0.00;;;0.00;;
13079;SDS011;6606;49.154;9.280;2023-09-08T16:06:30;0.00;;;0.00;;
13079;SDS011;6606;49.154;9.280;2023-09-08T16:09:12;0.00;;;0.00;;
13079;SDS011;6606;49.154;9.280;2023-09-08T16:11:55;0.00;;;0.00;;
13079;SDS011;6606;49.154;9.280;2023-09-08T16:14:37;0.00;;;0.00;;
13079;SDS011;6606;49.154;9.280;2023-09-08T16:17:18;0.00;;;0.00;;
13079;SDS011;6606;49.154;9.280;2023-09-08T16:20:00;0.00;;;0.00;;
13079;SDS011;6606;49.154;9.280;2023-09-08T16:22:42;0.00;;;0.00;;
13079;SDS011;6606;49.154;9.280;2023-09-08T16:25:24;0.00;;;0.00;;
13079;SDS011;6606;49.154;9.280;2023-09-08T16:28:07;0.00;;;0.00;;
13079;SDS011;6606;49.154;9.280;2023-09-08T16:30:49;0.00;;;0.00;;
13079;SDS011;6606;49.154;9.280;2023-09-08T16:33:30;0.00;;;0.00;;
13079;SDS011;6606;49.154;9.280;2023-09-08T16:36:12;0.08;;;0.08;;
13079;SDS011;6606;49.154;9.280;2023-09-08T16:38:55;0.10;;;0.10;;